Time;durP1;ratioP1;P1;durP2;ratioP2;P2;SDS_P1;SDS_P2;PMS_P1;PMS_P2;Temp;Humidity;BMP_temperature;BMP_pressure;BME280_temperature;BME280_humidity;BME280_pressure;Samples;Min_cycle;Max_cycle;Signal;HPM_P1;HPM_P2
2021/01/31 00:01:17;;;;;;;22.27;15.27;;;;;;;-1.26;83.79;100306.91;5225303;28;20026;-70
2021/01/31 00:03:48;;;;;;;24.00;15.20;;;;;;;-1.31;82.78;100310.59;5227441;28;20025;-70
2021/01/31 00:06:20;;;;;;;19.83;14.85;;;;;;;-1.34;83.24;100311.56;5222980;28;20209;-69
2021/01/31 00:08:52;;;;;;;21.20;15.77;;;;;;;-1.31;85.07;100313.19;5224345;28;20470;-68
2021/01/31 00:11:23;;;;;;;22.55;16.08;;;;;;;-1.33;85.17;100312.41;5218750;28;20029;-69
2021/01/31 00:13:54;;;;;;;21.02;15.43;;;;;;;-1.37;85.11;100314.25;5222497;28;20068;-69
2021/01/31 00:16:26;;;;;;;22.77;16.40;;;;;;;-1.38;84.98;100310.03;5213496;28;20290;-69
2021/01/31 00:18:57;;;;;;;22.90;16.63;;;;;;;-1.40;85.08;100303.28;5208788;28;20033;-69
2021/01/31 00:21:28;;;;;;;21.63;16.05;;;;;;;-1.41;83.42;100304.19;5206963;28;20034;-68
2021/01/31 00:23:59;;;;;;;21.65;15.10;;;;;;;-1.38;85.93;100307.47;5219052;28;20044;-68
2021/01/31 00:26:30;;;;;;;20.30;15.15;;;;;;;-1.44;84.30;100307.72;5218336;28;20165;-69
2021/01/31 00:29:03;;;;;;;22.60;15.00;;;;;;;-1.48;85.27;100312.19;5207512;28;20057;-68
2021/01/31 00:31:34;;;;;;;20.83;14.52;;;;;;;-1.54;83.70;100306.47;5220208;28;20030;-67
2021/01/31 00:34:05;;;;;;;20.98;15.23;;;;;;;-1.53;85.42;100313.28;5224137;28;20036;-68
2021/01/31 00:36:36;;;;;;;22.83;15.45;;;;;;;-1.56;83.43;100310.84;5215817;28;20491;-67
2021/01/31 00:39:08;;;;;;;21.85;15.95;;;;;;;-1.53;85.27;100308.13;5219825;28;20021;-67
2021/01/31 00:41:40;;;;;;;23.13;15.77;;;;;;;-1.57;84.35;100304.88;5222040;28;20079;-67
2021/01/31 00:44:12;;;;;;;21.55;16.05;;;;;;;-1.57;84.43;100304.03;5221506;28;20040;-69
2021/01/31 00:46:43;;;;;;;22.52;16.20;;;;;;;-1.61;83.83;100305.06;5223624;28;20037;-69
2021/01/31 00:49:14;;;;;;;21.17;14.90;;;;;;;-1.67;83.15;100302.75;5224358;28;20391;-69
2021/01/31 00:51:47;;;;;;;20.73;15.57;;;;;;;-1.65;84.38;100306.09;5223215;28;20134;-69
2021/01/31 00:54:18;;;;;;;22.58;15.40;;;;;;;-1.65;84.47;100312.06;5223914;28;20048;-70
2021/01/31 00:56:49;;;;;;;21.65;15.30;;;;;;;-1.62;87.04;100322.22;5223401;28;20479;-69
2021/01/31 00:59:20;;;;;;;21.83;16.23;;;;;;;-1.64;85.16;100329.13;5222958;28;20033;-69
2021/01/31 01:01:52;;;;;;;20.85;15.93;;;;;;;-1.62;86.32;100326.53;5220897;28;20052;-69
2021/01/31 01:04:23;;;;;;;23.92;16.52;;;;;;;-1.68;84.52;100322.47;5225432;28;20038;-71
2021/01/31 01:06:54;;;;;;;22.67;15.30;;;;;;;-1.69;85.69;100327.69;5224246;28;20428;-70
2021/01/31 01:09:25;;;;;;;21.15;15.98;;;;;;;-1.71;85.84;100328.56;5220346;28;20164;-69
2021/01/31 01:11:57;;;;;;;23.13;16.23;;;;;;;-1.76;83.79;100332.22;5223892;28;20029;-71
2021/01/31 01:14:30;;;;;;;20.13;15.90;;;;;;;-1.73;85.22;100334.69;5224888;28;20075;-70
2021/01/31 01:17:03;;;;;;;21.45;15.77;;;;;;;-1.72;85.87;100326.06;5218945;28;20026;-69
2021/01/31 01:19:34;;;;;;;21.33;16.83;;;;;;;-1.77;86.22;100333.13;5226118;28;20475;-70
2021/01/31 01:22:05;;;;;;;23.55;17.35;;;;;;;-1.78;84.78;100339.16;5224422;28;20022;-70
2021/01/31 01:24:37;;;;;;;24.98;15.10;;;;;;;-1.78;83.82;100346.84;5220863;28;20032;-70
2021/01/31 01:27:08;;;;;;;22.98;16.42;;;;;;;-1.78;84.40;100334.88;5221560;28;20032;-69
2021/01/31 01:29:40;;;;;;;22.02;16.67;;;;;;;-1.80;84.05;100344.38;5220520;28;20045;-70
2021/01/31 01:32:12;;;;;;;23.10;16.25;;;;;;;-1.87;84.13;100342.94;5215950;28;20087;-70
2021/01/31 01:34:43;;;;;;;23.08;15.88;;;;;;;-1.92;84.37;100336.34;5223024;28;20522;-69
2021/01/31 01:37:15;;;;;;;22.35;15.30;;;;;;;-1.88;86.51;100335.31;5240300;28;20026;-69
2021/01/31 01:39:47;;;;;;;24.33;16.30;;;;;;;-1.87;85.55;100342.94;5220544;28;20483;-70
2021/01/31 01:42:18;;;;;;;20.55;15.85;;;;;;;-1.88;85.53;100343.03;5221105;28;20043;-69
2021/01/31 01:44:49;;;;;;;20.80;15.77;;;;;;;-1.89;85.84;100337.06;5222375;28;20056;-70
2021/01/31 01:47:24;;;;;;;23.38;16.83;;;;;;;-1.92;85.28;100334.63;5234932;28;20021;-69
2021/01/31 01:50:07;;;;;;;21.00;15.55;;;;;;;-1.92;84.77;100333.78;5221002;28;20034;-68
2021/01/31 01:52:40;;;;;;;22.92;15.52;;;;;;;-1.98;85.07;100332.28;5220218;28;20438;-69
2021/01/31 01:55:14;;;;;;;22.25;16.63;;;;;;;-2.05;84.50;100331.69;5217989;28;20529;-69
2021/01/31 01:57:50;;;;;;;21.58;16.20;;;;;;;-2.04;86.91;100327.44;5220805;28;20964;-69
2021/01/31 02:00:23;;;;;;;23.40;16.55;;;;;;;-2.06;86.49;100331.78;5217820;28;20406;-69
2021/01/31 02:03:03;;;;;;;25.17;17.27;;;;;;;-2.03;86.75;100329.09;5206983;28;20055;-70
2021/01/31 02:05:37;;;;;;;22.75;16.63;;;;;;;-2.07;87.21;100330.09;5211153;28;20496;-70
2021/01/31 02:08:08;;;;;;;23.48;16.08;;;;;;;-2.03;86.63;100332.47;5215358;28;20508;-70
2021/01/31 02:10:39;;;;;;;22.13;16.20;;;;;;;-2.06;86.53;100334.34;5206490;28;20029;-69
2021/01/31 02:13:11;;;;;;;21.85;16.15;;;;;;;-2.05;86.46;100323.16;5219869;28;20034;-69
2021/01/31 02:15:45;;;;;;;22.08;16.23;;;;;;;-2.11;84.84;100329.41;5214108;28;20685;-70
2021/01/31 02:18:27;;;;;;;21.25;16.17;;;;;;;-2.12;85.31;100322.59;5209961;28;20034;-69
2021/01/31 02:21:17;;;;;;;23.35;16.88;;;;;;;-2.14;86.40;100331.25;5210058;28;20029;-69
2021/01/31 02:24:19;;;;;;;21.17;15.98;;;;;;;-2.09;86.76;100344.72;5211093;28;20044;-69
2021/01/31 02:27:11;;;;;;;25.30;17.38;;;;;;;-2.15;85.12;100333.00;5204656;28;20030;-70
2021/01/31 02:30:10;;;;;;;22.95;16.42;;;;;;;-2.16;85.57;100330.47;5216329;28;20030;-69
2021/01/31 02:33:19;;;;;;;23.40;16.92;;;;;;;-2.14;85.21;100334.66;5223929;28;20111;-70
2021/01/31 02:36:03;;;;;;;23.02;17.00;;;;;;;-2.17;86.22;100327.06;5223357;28;20033;-69
2021/01/31 02:39:06;;;;;;;25.50;17.88;;;;;;;-2.14;85.98;100323.56;5224476;28;20025;-69
2021/01/31 02:41:56;;;;;;;22.88;16.63;;;;;;;-2.26;85.51;100320.59;5221655;28;20184;-70
2021/01/31 02:44:29;;;;;;;27.65;18.30;;;;;;;-2.25;86.62;100327.38;5224189;28;20037;-70
2021/01/31 02:47:04;;;;;;;24.50;15.88;;;;;;;-2.26;87.67;100320.59;5222995;28;20030;-71
2021/01/31 02:49:42;;;;;;;23.35;16.50;;;;;;;-2.21;87.64;100318.66;5225600;28;20039;-69
2021/01/31 02:52:19;;;;;;;25.00;17.48;;;;;;;-2.27;86.68;100310.41;5222673;28;20487;-71
2021/01/31 02:55:02;;;;;;;26.27;17.75;;;;;;;-2.30;86.58;100315.66;5221549;28;20112;-70
2021/01/31 02:57:48;;;;;;;24.83;17.75;;;;;;;-2.35;85.88;100315.84;5220598;28;20048;-72
2021/01/31 03:00:26;;;;;;;26.30;17.58;;;;;;;-2.33;88.33;100302.94;5221076;28;20033;-71
2021/01/31 03:03:06;;;;;;;23.52;16.80;;;;;;;-2.34;86.38;100317.50;5222870;28;20070;-73
2021/01/31 03:05:52;;;;;;;24.50;17.77;;;;;;;-2.38;85.10;100323.66;5226987;28;20060;-69
2021/01/31 03:08:29;;;;;;;24.80;17.52;;;;;;;-2.43;85.75;100317.84;5221945;28;20801;-67
2021/01/31 03:11:07;;;;;;;24.40;16.88;;;;;;;-2.38;87.49;100317.69;5226413;28;20030;-68
2021/01/31 03:13:53;;;;;;;25.95;17.40;;;;;;;-2.38;88.54;100313.38;5222950;28;20579;-70
2021/01/31 03:16:37;;;;;;;23.88;17.35;;;;;;;-2.43;85.83;100314.44;5227093;28;20425;-69
2021/01/31 03:19:16;;;;;;;24.33;17.90;;;;;;;-2.46;87.29;100305.16;5222115;28;20176;-69
2021/01/31 03:21:53;;;;;;;24.33;18.13;;;;;;;-2.48;85.52;100307.78;5215176;28;20025;-69
2021/01/31 03:24:31;;;;;;;24.45;17.75;;;;;;;-2.49;87.34;100300.16;5228026;28;20026;-69
2021/01/31 03:27:08;;;;;;;26.48;17.65;;;;;;;-2.48;87.80;100307.78;5229544;28;20041;-69
2021/01/31 03:29:39;;;;;;;23.80;16.48;;;;;;;-2.46;88.41;100308.56;5230186;28;20037;-68
2021/01/31 03:32:27;;;;;;;29.15;17.67;;;;;;;-2.42;87.33;100306.72;5228482;28;20022;-68
2021/01/31 03:35:08;;;;;;;23.10;16.98;;;;;;;-2.44;87.48;100316.19;5230651;28;20030;-68
2021/01/31 03:37:50;;;;;;;23.73;17.30;;;;;;;-2.52;86.07;100319.06;5225987;28;20040;-69
2021/01/31 03:40:23;;;;;;;24.38;17.10;;;;;;;-2.64;85.94;100318.72;5227448;28;20033;-69
2021/01/31 03:42:54;;;;;;;23.17;15.93;;;;;;;-2.60;87.67;100320.25;5227884;28;20025;-68
2021/01/31 03:45:36;;;;;;;24.05;17.50;;;;;;;-2.65;87.31;100322.13;5225057;28;20504;-68
2021/01/31 03:48:14;;;;;;;25.63;17.98;;;;;;;-2.65;87.35;100333.25;5226707;28;20352;-68
2021/01/31 03:50:46;;;;;;;27.17;18.63;;;;;;;-2.63;88.23;100343.44;5231272;28;21049;-69
2021/01/31 03:53:17;;;;;;;25.77;18.50;;;;;;;-2.64;87.78;100345.19;5228713;28;20032;-69
2021/01/31 03:55:49;;;;;;;24.85;17.70;;;;;;;-2.60;88.52;100345.91;5230652;28;20084;-69
2021/01/31 03:58:22;;;;;;;25.73;17.63;;;;;;;-2.57;87.47;100344.06;5229285;28;20029;-69
2021/01/31 04:01:00;;;;;;;24.98;17.73;;;;;;;-2.67;87.69;100342.72;5229370;28;20088;-68
2021/01/31 04:03:37;;;;;;;26.85;17.85;;;;;;;-2.72;86.76;100334.38;5228177;28;20041;-68
2021/01/31 04:06:13;;;;;;;25.33;17.42;;;;;;;-2.76;86.80;100336.22;5228766;28;20049;-68
2021/01/31 04:08:48;;;;;;;26.40;19.88;;;;;;;-2.72;87.61;100336.94;5230090;28;20368;-68
2021/01/31 04:11:30;;;;;;;27.80;18.98;;;;;;;-2.80;86.85;100333.84;5229827;28;20505;-67
2021/01/31 04:14:24;;;;;;;26.67;18.67;;;;;;;-2.80;87.57;100336.41;5224960;28;20033;-67
2021/01/31 04:16:55;;;;;;;25.58;18.35;;;;;;;-2.84;87.36;100333.13;5224897;28;20045;-67
2021/01/31 04:19:26;;;;;;;25.42;17.42;;;;;;;-2.78;89.56;100326.91;5226447;28;20037;-67
2021/01/31 04:21:57;;;;;;;27.50;17.55;;;;;;;-2.80;86.95;100329.56;5222088;28;20030;-67
2021/01/31 04:24:29;;;;;;;24.90;17.80;;;;;;;-2.86;87.60;100328.94;5227195;28;20030;-67
2021/01/31 04:27:03;;;;;;;26.45;18.80;;;;;;;-2.83;89.66;100339.09;5229123;28;20033;-67
2021/01/31 04:29:35;;;;;;;27.05;18.08;;;;;;;-2.82;88.61;100340.75;5227801;28;20099;-67
2021/01/31 04:32:06;;;;;;;26.63;18.70;;;;;;;-2.80;90.22;100344.94;5225505;28;20036;-67
2021/01/31 04:34:37;;;;;;;25.25;18.13;;;;;;;-2.82;89.04;100354.41;5224841;28;20034;-67
2021/01/31 04:37:08;;;;;;;25.52;18.38;;;;;;;-2.82;88.72;100356.97;5224188;28;20404;-67
2021/01/31 04:39:40;;;;;;;27.10;18.25;;;;;;;-2.88;87.76;100357.16;5240586;28;20376;-67
2021/01/31 04:42:12;;;;;;;25.60;18.00;;;;;;;-2.83;88.11;100364.72;5227450;28;20084;-67
2021/01/31 04:44:43;;;;;;;30.92;20.73;;;;;;;-2.92;87.38;100362.47;5223982;28;20033;-67
2021/01/31 04:47:30;;;;;;;26.20;18.40;;;;;;;-2.83;89.36;100357.03;5227545;28;20471;-67
2021/01/31 04:50:22;;;;;;;23.25;16.45;;;;;;;-2.81;88.24;100353.50;5223091;28;20037;-67
2021/01/31 04:53:05;;;;;;;26.35;18.13;;;;;;;-2.83;89.10;100346.78;5225609;28;20029;-67
2021/01/31 04:55:55;;;;;;;25.77;18.17;;;;;;;-2.87;88.04;100346.06;5225846;28;20124;-67
2021/01/31 04:58:30;;;;;;;26.48;18.38;;;;;;;-2.93;87.20;100348.81;5225209;28;20018;-67
2021/01/31 05:01:32;;;;;;;27.20;19.33;;;;;;;-2.92;89.30;100357.34;5218619;28;20045;-68
2021/01/31 05:04:10;;;;;;;28.67;19.17;;;;;;;-2.96;90.24;100354.06;5222072;28;20054;-67
2021/01/31 05:06:47;;;;;;;25.42;17.45;;;;;;;-2.97;87.65;100344.72;5221146;28;20048;-67
2021/01/31 05:09:25;;;;;;;31.58;20.52;;;;;;;-3.06;88.87;100350.19;5224008;28;20045;-67
2021/01/31 05:12:12;;;;;;;27.45;19.30;;;;;;;-3.02;90.47;100354.31;5227429;28;20084;-67
2021/01/31 05:15:04;;;;;;;26.05;18.13;;;;;;;-3.08;89.27;100359.63;5223409;28;20414;-67
2021/01/31 05:17:36;;;;;;;26.88;18.48;;;;;;;-3.10;89.67;100362.28;5223103;28;20037;-67
2021/01/31 05:20:08;;;;;;;25.33;17.30;;;;;;;-3.11;88.26;100358.00;5223931;28;20060;-68
2021/01/31 05:22:44;;;;;;;30.10;19.80;;;;;;;-3.09;88.75;100366.50;5225817;28;20040;-67
2021/01/31 05:25:18;;;;;;;26.75;18.63;;;;;;;-3.10;88.89;100364.00;5226058;28;20029;-67
2021/01/31 05:27:55;;;;;;;28.80;19.70;;;;;;;-3.07;90.04;100358.75;5226011;28;20022;-68
2021/01/31 05:30:29;;;;;;;27.40;19.08;;;;;;;-3.17;89.41;100348.00;5223998;28;20108;-67
2021/01/31 05:33:09;;;;;;;30.42;19.88;;;;;;;-3.11;89.87;100360.59;5226862;28;20095;-68
2021/01/31 05:35:46;;;;;;;28.00;18.50;;;;;;;-3.17;89.67;100358.25;5223900;28;20033;-67
2021/01/31 05:38:37;;;;;;;30.17;19.80;;;;;;;-3.14;89.81;100370.09;5225500;28;20042;-67
2021/01/31 05:41:48;;;;;;;29.13;19.08;;;;;;;-3.10;88.80;100371.69;5226698;28;20040;-68
2021/01/31 05:44:25;;;;;;;28.88;19.88;;;;;;;-3.13;90.86;100371.78;5221945;28;20022;-67
2021/01/31 05:47:00;;;;;;;27.52;18.90;;;;;;;-3.16;91.04;100366.78;5226025;28;20034;-67
2021/01/31 05:49:36;;;;;;;28.42;19.33;;;;;;;-3.19;90.36;100368.53;5223549;28;20045;-68
2021/01/31 05:52:20;;;;;;;27.63;18.92;;;;;;;-3.17;90.26;100362.56;5223334;28;20128;-67
2021/01/31 05:54:53;;;;;;;27.27;18.33;;;;;;;-3.16;89.84;100374.47;5225024;28;20056;-68
2021/01/31 05:57:31;;;;;;;29.60;19.75;;;;;;;-3.22;88.80;100386.59;5223861;28;20041;-67
2021/01/31 06:00:15;;;;;;;30.27;19.95;;;;;;;-3.24;89.21;100377.28;5222011;28;20124;-67
2021/01/31 06:03:02;;;;;;;28.48;18.42;;;;;;;-3.16;90.73;100372.72;5224826;28;20038;-67
2021/01/31 06:05:34;;;;;;;27.73;18.45;;;;;;;-3.23;90.12;100366.16;5221487;28;20033;-68
2021/01/31 06:08:27;;;;;;;32.17;20.45;;;;;;;-3.26;88.71;100382.50;5226070;28;20049;-67
2021/01/31 06:11:27;;;;;;;27.42;18.73;;;;;;;-3.22;89.21;100401.97;5222744;28;20072;-68
2021/01/31 06:14:09;;;;;;;28.90;19.05;;;;;;;-3.32;88.76;100392.09;5224412;28;20511;-68
2021/01/31 06:16:43;;;;;;;30.35;20.17;;;;;;;-3.40;88.74;100383.84;5225933;28;20060;-67
2021/01/31 06:19:24;;;;;;;29.35;20.30;;;;;;;-3.36;89.42;100385.41;5221989;28;20037;-67
2021/01/31 06:21:56;;;;;;;29.95;19.63;;;;;;;-3.26;93.20;100379.06;5223839;28;20026;-67
2021/01/31 06:24:39;;;;;;;31.25;20.77;;;;;;;-3.39;89.97;100368.41;5221986;28;20036;-67
2021/01/31 06:27:15;;;;;;;27.25;18.20;;;;;;;-3.36;90.14;100372.59;5221397;28;20034;-67
2021/01/31 06:30:10;;;;;;;31.77;20.30;;;;;;;-3.39;89.38;100375.28;5221276;28;20488;-67
2021/01/31 06:32:41;;;;;;;27.95;18.92;;;;;;;-3.43;89.94;100377.09;5221377;28;20327;-67
2021/01/31 06:35:15;;;;;;;28.35;19.60;;;;;;;-3.45;89.15;100366.06;5223522;28;20025;-67
2021/01/31 06:38:01;;;;;;;;;;;;;;;-3.29;88.05;100381.75;5224550;28;20033;-67
2021/01/31 06:40:41;;;;;;;30.27;19.10;;;;;;;-3.43;89.24;100379.66;5225492;28;19909;-67
2021/01/31 06:43:29;;;;;;;29.35;19.58;;;;;;;-3.41;89.64;100380.44;5225554;28;20041;-67
2021/01/31 06:46:25;;;;;;;28.50;19.20;;;;;;;-3.36;90.69;100383.69;5223051;28;20044;-68
2021/01/31 06:49:33;;;;;;;28.73;18.95;;;;;;;-3.35;91.41;100389.63;5224667;28;20075;-67
2021/01/31 06:52:25;;;;;;;27.80;17.77;;;;;;;-3.48;89.29;100379.81;5222590;28;20049;-67
2021/01/31 06:55:25;;;;;;;27.10;18.40;;;;;;;-3.36;89.97;100385.41;5223207;28;20044;-67
2021/01/31 06:58:17;;;;;;;29.13;18.67;;;;;;;-3.48;89.28;100371.31;5224043;28;20064;-67
2021/01/31 07:01:19;;;;;;;30.58;19.55;;;;;;;-3.46;89.72;100369.53;5223125;28;20026;-67
2021/01/31 07:04:11;;;;;;;30.88;19.88;;;;;;;-3.47;91.51;100365.28;5224583;28;20061;-67
2021/01/31 07:07:20;;;;;;;27.63;19.52;;;;;;;-3.45;91.73;100363.50;5221807;28;20512;-67
2021/01/31 07:10:15;;;;;;;29.23;19.35;;;;;;;-3.51;89.33;100371.41;5224402;28;20039;-67
2021/01/31 07:13:12;;;;;;;31.38;20.50;;;;;;;-3.56;92.40;100375.84;5224555;28;20025;-67
2021/01/31 07:16:09;;;;;;;28.92;19.80;;;;;;;-3.50;91.58;100375.63;5219519;28;20424;-68
2021/01/31 07:19:22;;;;;;;37.22;19.15;;;;;;;-3.46;90.62;100372.91;5221764;28;20038;-67
2021/01/31 07:22:13;;;;;;;30.20;19.40;;;;;;;-3.52;89.82;100370.59;5224442;28;20029;-67
2021/01/31 07:24:52;;;;;;;30.45;18.80;;;;;;;-3.54;89.65;100372.34;5223190;28;20033;-68
2021/01/31 07:27:36;;;;;;;28.10;18.83;;;;;;;-3.50;89.98;100376.47;5221562;28;20026;-66
2021/01/31 07:30:32;;;;;;;29.20;19.85;;;;;;;-3.48;89.22;100372.16;5222605;28;20167;-67
2021/01/31 07:33:11;;;;;;;28.27;18.40;;;;;;;-3.45;90.15;100366.94;5219129;28;20412;-67
2021/01/31 07:35:53;;;;;;;30.48;19.00;;;;;;;-3.46;90.77;100360.09;5222388;28;20109;-67
2021/01/31 07:38:36;;;;;;;28.30;18.13;;;;;;;-3.47;90.23;100360.19;5221501;28;20021;-67
2021/01/31 07:41:08;;;;;;;32.50;20.27;;;;;;;-3.53;88.29;100362.94;5221185;28;20041;-67
2021/01/31 07:43:41;;;;;;;26.98;18.45;;;;;;;-3.48;90.52;100366.19;5222294;28;20135;-67
2021/01/31 07:46:16;;;;;;;26.73;19.00;;;;;;;-3.45;90.58;100363.50;5223287;28;20037;-67
2021/01/31 07:48:50;;;;;;;34.40;20.48;;;;;;;-3.49;89.45;100372.19;5228092;28;20364;-67
2021/01/31 07:51:27;;;;;;;26.17;17.55;;;;;;;-3.46;90.13;100380.59;5227673;28;20026;-68
2021/01/31 07:54:16;;;;;;;28.27;19.58;;;;;;;-3.39;89.56;100391.47;5224180;28;20029;-67
2021/01/31 07:56:49;;;;;;;27.38;18.60;;;;;;;-3.39;91.29;100391.47;5226690;28;20029;-67
2021/01/31 07:59:20;;;;;;;28.58;19.42;;;;;;;-3.40;91.34;100394.94;5224136;28;20508;-68
2021/01/31 08:01:55;;;;;;;30.77;18.92;;;;;;;-3.29;92.15;100410.75;5223962;28;20029;-67
2021/01/31 08:04:32;;;;;;;30.05;20.08;;;;;;;-3.26;89.44;100420.91;5225570;28;20095;-67
2021/01/31 08:07:06;;;;;;;29.05;18.52;;;;;;;-3.20;88.65;100423.25;5221788;28;20128;-67
2021/01/31 08:09:37;;;;;;;;;;;;;;;-3.07;88.43;100433.06;5225613;28;20038;-68
2021/01/31 08:12:11;;;;;;;27.52;17.67;;;;;;;-3.06;89.16;100429.63;5225240;28;20267;-67
2021/01/31 08:15:10;;;;;;;26.05;16.48;;;;;;;-3.01;88.77;100423.44;5223417;28;20033;-67
2021/01/31 08:17:47;;;;;;;29.45;18.00;;;;;;;-3.03;89.72;100414.13;5225204;28;20483;-67
2021/01/31 08:20:27;;;;;;;28.88;19.33;;;;;;;-2.99;88.92;100426.78;5214498;28;20475;-67
2021/01/31 08:23:24;;;;;;;27.88;19.42;;;;;;;-3.00;89.32;100419.13;5224707;28;20079;-67
2021/01/31 08:26:03;;;;;;;27.52;17.52;;;;;;;-2.89;91.77;100417.03;5220097;28;20042;-67
2021/01/31 08:28:36;;;;;;;28.52;19.05;;;;;;;-2.96;89.10;100407.88;5226008;28;20570;-67
2021/01/31 08:31:10;;;;;;;27.88;18.90;;;;;;;-3.03;87.65;100409.00;5227581;28;20491;-67
2021/01/31 08:33:44;;;;;;;27.83;19.25;;;;;;;-3.02;88.62;100419.19;5225422;28;20574;-68
2021/01/31 08:36:18;;;;;;;;;;;;;;;-2.88;87.77;100416.13;5224173;28;20087;-68
2021/01/31 08:38:57;;;;;;;26.75;17.42;;;;;;;-2.92;88.57;100409.44;5225114;28;19960;-67
2021/01/31 08:41:39;;;;;;;28.77;18.67;;;;;;;-2.91;89.04;100413.69;5224324;28;20033;-67
2021/01/31 08:44:10;;;;;;;27.67;18.58;;;;;;;-2.85;89.14;100412.63;5223477;28;20033;-67
2021/01/31 08:47:01;;;;;;;27.77;18.50;;;;;;;-2.81;88.14;100404.75;5225642;28;20033;-67
2021/01/31 08:49:32;;;;;;;26.85;17.40;;;;;;;-2.81;88.23;100399.63;5224891;28;20359;-67
2021/01/31 08:52:08;;;;;;;26.63;18.67;;;;;;;-2.78;87.88;100396.97;5225742;28;20023;-67
2021/01/31 08:54:39;;;;;;;26.90;17.67;;;;;;;-2.82;87.80;100381.75;5222415;28;20029;-67
2021/01/31 08:57:14;;;;;;;25.30;17.58;;;;;;;-2.75;88.08;100383.22;5222508;28;20053;-67
2021/01/31 08:59:48;;;;;;;27.63;19.17;;;;;;;-2.67;88.69;100388.03;5222482;28;20027;-67
2021/01/31 09:02:25;;;;;;;26.20;17.88;;;;;;;-2.61;88.91;100375.84;5223070;28;20021;-67
2021/01/31 09:05:01;;;;;;;26.75;18.45;;;;;;;-2.59;88.93;100373.19;5221650;28;20947;-67
2021/01/31 09:07:35;;;;;;;25.58;17.42;;;;;;;-2.59;87.13;100371.47;5225813;28;20076;-67
2021/01/31 09:10:16;;;;;;;27.30;17.63;;;;;;;-2.54;86.93;100372.16;5222808;28;20494;-67
2021/01/31 09:12:48;;;;;;;28.65;19.33;;;;;;;-2.53;86.41;100367.84;5222253;28;20099;-67
2021/01/31 09:15:24;;;;;;;28.65;17.55;;;;;;;-2.44;87.68;100370.06;5223788;28;20034;-67
2021/01/31 09:18:13;;;;;;;26.98;18.05;;;;;;;-2.41;86.69;100364.81;5225123;28;20030;-67
2021/01/31 09:20:46;;;;;;;26.33;17.35;;;;;;;-2.36;87.42;100370.59;5224503;28;20025;-67
2021/01/31 09:23:33;;;;;;;25.50;17.02;;;;;;;-2.29;86.06;100363.50;5203910;28;20041;-67
2021/01/31 09:26:04;;;;;;;23.52;16.40;;;;;;;-2.27;85.09;100366.84;5222885;28;20037;-68
2021/01/31 09:28:40;;;;;;;24.98;17.17;;;;;;;-2.20;85.11;100370.81;5224424;28;20021;-67
2021/01/31 09:31:14;;;;;;;30.48;18.02;;;;;;;-2.17;86.29;100360.44;5225849;28;20048;-67
2021/01/31 09:33:46;;;;;;;25.80;17.17;;;;;;;-2.14;85.70;100347.47;5223500;28;20025;-67
2021/01/31 09:36:19;;;;;;;25.33;17.02;;;;;;;-2.05;84.60;100352.22;5225331;28;20029;-67
2021/01/31 09:38:52;;;;;;;26.38;17.35;;;;;;;-2.00;86.11;100340.06;5222818;28;20096;-67
2021/01/31 09:41:26;;;;;;;24.17;16.67;;;;;;;-1.90;83.18;100343.06;5224903;28;20602;-67
2021/01/31 09:44:01;;;;;;;23.95;16.92;;;;;;;-1.86;83.68;100344.59;5223193;28;20436;-68
2021/01/31 09:46:35;;;;;;;25.33;16.42;;;;;;;-1.78;84.81;100340.00;5223431;28;20038;-67
2021/01/31 09:49:18;;;;;;;22.98;15.70;;;;;;;-1.72;83.54;100333.78;5224435;28;20029;-67
2021/01/31 09:51:50;;;;;;;20.38;14.93;;;;;;;-1.66;83.05;100330.13;5227472;28;20022;-67
2021/01/31 09:54:29;;;;;;;22.90;15.77;;;;;;;-1.60;82.94;100329.84;5223865;28;20033;-67
2021/01/31 09:57:05;;;;;;;21.80;15.90;;;;;;;-1.58;81.66;100325.50;5223216;28;20762;-67
2021/01/31 09:59:36;;;;;;;24.20;15.77;;;;;;;-1.52;82.07;100322.63;5220220;28;20164;-67
2021/01/31 10:02:22;;;;;;;25.02;16.23;;;;;;;-1.48;81.56;100316.47;5220813;28;20030;-67
2021/01/31 10:04:57;;;;;;;21.95;15.35;;;;;;;-1.41;81.61;100323.00;5222482;28;20421;-67
2021/01/31 10:07:32;;;;;;;23.90;16.20;;;;;;;-1.38;80.32;100324.63;5220806;28;20110;-67
2021/01/31 10:10:25;;;;;;;25.42;16.35;;;;;;;-1.27;81.85;100325.81;5223571;28;20494;-67
2021/01/31 10:13:37;;;;;;;23.30;16.98;;;;;;;-1.20;81.52;100323.00;5221271;28;20029;-67
2021/01/31 10:16:20;;;;;;;23.88;16.13;;;;;;;-1.17;80.99;100315.16;5221241;28;20094;-67
2021/01/31 10:18:51;;;;;;;22.23;16.33;;;;;;;-1.07;80.54;100319.78;5217553;28;20095;-66
2021/01/31 10:21:33;;;;;;;20.95;15.30;;;;;;;-0.99;80.71;100311.72;5217813;28;20541;-67
2021/01/31 10:24:23;;;;;;;21.55;14.88;;;;;;;-0.92;79.57;100302.81;5225383;28;20029;-67
2021/01/31 10:27:03;;;;;;;23.02;16.58;;;;;;;-0.86;79.24;100297.41;5220512;28;20033;-67
2021/01/31 10:29:35;;;;;;;21.35;15.43;;;;;;;-0.81;80.31;100298.03;5218995;28;20052;-67
2021/01/31 10:32:24;;;;;;;20.15;14.15;;;;;;;-0.70;79.31;100309.56;5221282;28;20029;-66
2021/01/31 10:34:56;;;;;;;20.38;14.80;;;;;;;-0.62;79.00;100307.44;5222399;28;20025;-67
2021/01/31 10:37:34;;;;;;;23.08;15.63;;;;;;;-0.56;77.95;100315.72;5222945;28;20033;-67
2021/01/31 10:40:07;;;;;;;20.17;14.27;;;;;;;-0.52;78.83;100301.81;5221088;28;20060;-67
2021/01/31 10:42:38;;;;;;;20.48;13.77;;;;;;;-0.47;76.49;100309.28;5221467;28;20679;-67
2021/01/31 10:45:21;;;;;;;20.77;14.25;;;;;;;-0.41;76.78;100298.72;5221756;28;20037;-67
2021/01/31 10:47:52;;;;;;;19.55;13.30;;;;;;;-0.37;77.74;100305.38;5222852;28;20467;-67
2021/01/31 10:50:23;;;;;;;19.58;13.52;;;;;;;-0.29;76.42;100294.72;5218640;28;20025;-67
2021/01/31 10:52:55;;;;;;;20.83;14.23;;;;;;;-0.22;76.35;100293.50;5217208;28;20038;-67
2021/01/31 10:55:26;;;;;;;19.20;14.25;;;;;;;-0.15;77.00;100294.88;5219512;28;20034;-67
2021/01/31 10:57:57;;;;;;;20.02;13.43;;;;;;;-0.11;75.76;100275.81;5220837;28;20033;-67
2021/01/31 11:00:31;;;;;;;18.85;13.82;;;;;;;-0.10;75.58;100272.31;5221529;28;20043;-67
2021/01/31 11:03:03;;;;;;;19.48;13.48;;;;;;;-0.06;76.57;100267.84;5220606;28;20075;-66
2021/01/31 11:05:34;;;;;;;19.42;12.75;;;;;;;0.05;76.17;100255.25;5217530;28;20493;-67
2021/01/31 11:08:05;;;;;;;17.50;13.63;;;;;;;0.15;75.07;100256.47;5221994;28;20073;-66
2021/01/31 11:10:37;;;;;;;20.58;13.40;;;;;;;0.25;75.03;100254.22;5222630;28;20423;-66
2021/01/31 11:13:08;;;;;;;18.23;13.13;;;;;;;0.26;75.31;100253.31;5221249;28;20042;-66
2021/01/31 11:15:39;;;;;;;20.88;13.88;;;;;;;0.31;74.12;100251.34;5221135;28;20160;-66
2021/01/31 11:18:11;;;;;;;18.98;13.73;;;;;;;0.34;75.63;100250.34;5220436;28;20139;-66
2021/01/31 11:20:42;;;;;;;17.80;13.40;;;;;;;0.39;74.60;100246.63;5220236;28;20053;-66
2021/01/31 11:23:14;;;;;;;20.27;13.63;;;;;;;0.40;73.79;100230.25;5222484;28;20064;-67
2021/01/31 11:25:45;;;;;;;21.30;13.15;;;;;;;0.44;74.45;100231.75;5222569;28;20483;-66
2021/01/31 11:28:17;;;;;;;18.42;12.68;;;;;;;0.53;73.12;100233.03;5223343;28;20128;-67
2021/01/31 11:30:48;;;;;;;17.80;12.82;;;;;;;0.57;73.87;100224.22;5224349;28;20121;-66
2021/01/31 11:33:20;;;;;;;16.33;12.23;;;;;;;0.63;74.37;100216.13;5225171;28;20117;-67
2021/01/31 11:35:51;;;;;;;18.27;12.63;;;;;;;0.71;73.44;100203.66;5224325;28;20026;-67
2021/01/31 11:38:23;;;;;;;16.75;12.38;;;;;;;0.77;72.41;100206.84;5224695;28;20026;-67
2021/01/31 11:40:54;;;;;;;21.85;13.85;;;;;;;0.76;72.80;100206.00;5225249;28;20026;-67
2021/01/31 11:43:25;;;;;;;24.05;15.60;;;;;;;0.93;73.58;100198.16;5223784;28;20021;-67
2021/01/31 11:45:57;;;;;;;17.67;13.25;;;;;;;0.87;72.79;100197.66;5225332;28;20041;-67
2021/01/31 11:48:28;;;;;;;18.75;12.98;;;;;;;0.86;72.98;100193.44;5225838;28;20386;-67
2021/01/31 11:50:59;;;;;;;17.33;12.75;;;;;;;0.88;72.52;100184.72;5220256;28;20026;-67
2021/01/31 11:53:31;;;;;;;18.02;13.15;;;;;;;0.97;72.47;100171.28;5223410;28;20048;-67
2021/01/31 11:56:02;;;;;;;16.95;12.18;;;;;;;0.97;72.00;100175.63;5223041;28;20017;-67
2021/01/31 11:58:33;;;;;;;13.98;11.18;;;;;;;1.04;70.92;100176.13;5222560;28;20037;-67
2021/01/31 12:01:04;;;;;;;16.80;11.98;;;;;;;1.04;72.23;100171.78;5220259;28;20072;-67